createdAt,value
2023-04-13T00:01:23.752Z,54.06
2023-04-13T00:03:52.321Z,54.48
2023-04-13T00:06:22.794Z,54.64
2023-04-13T00:08:54.855Z,53.95
2023-04-13T00:11:23.040Z,53.59
2023-04-13T00:13:50.837Z,54.41
2023-04-13T00:16:18.845Z,53.75
2023-04-13T00:18:46.685Z,53.61
2023-04-13T00:21:17.318Z,53.96
2023-04-13T00:23:46.639Z,53.88
2023-04-13T00:26:14.491Z,54.32
2023-04-13T00:28:45.530Z,54.68
2023-04-13T00:31:13.404Z,54.67
2023-04-13T00:33:41.564Z,54.36
2023-04-13T00:36:10.496Z,54.95
2023-04-13T00:38:39.212Z,55.21
2023-04-13T00:41:08.598Z,55.87
2023-04-13T00:43:36.760Z,55.84
2023-04-13T00:46:05.335Z,56.35
2023-04-13T00:48:36.316Z,56.84
2023-04-13T00:51:05.844Z,56.86
2023-04-13T00:53:34.783Z,56.47
2023-04-13T00:56:06.091Z,56.79
2023-04-13T00:58:36.043Z,56.65
2023-04-13T01:01:04.369Z,55.84
2023-04-13T01:03:34.539Z,56.38
2023-04-13T01:06:17.825Z,56.88
2023-04-13T01:08:49.115Z,58.32
2023-04-13T01:11:24.613Z,59.29
2023-04-13T01:14:02.742Z,59.81
2023-04-13T01:16:38.226Z,62.12
2023-04-13T01:19:11.976Z,62.75
2023-04-13T01:21:40.340Z,64.24
2023-04-13T01:24:22.201Z,64.95
2023-04-13T01:26:58.575Z,65.36
2023-04-13T01:29:29.885Z,65.60
2023-04-13T01:32:01.345Z,65.29
2023-04-13T01:34:29.773Z,65.63
2023-04-13T01:36:58.184Z,65.92
2023-04-13T01:39:32.046Z,66.08
2023-04-13T01:42:10.120Z,65.91
2023-04-13T01:44:40.487Z,65.85
2023-04-13T01:47:16.692Z,66.12
2023-04-13T01:50:10.264Z,66.01
2023-04-13T01:52:51.212Z,66.07
2023-04-13T01:55:19.838Z,66.10
2023-04-13T01:57:54.930Z,66.13
2023-04-13T02:00:32.054Z,66.83
2023-04-13T02:03:00.229Z,66.57
2023-04-13T02:05:28.072Z,66.79
2023-04-13T02:07:56.494Z,67.73
2023-04-13T02:10:24.341Z,67.91
2023-04-13T02:12:52.816Z,68.00
2023-04-13T02:15:21.220Z,67.54
2023-04-13T02:17:50.434Z,67.52
2023-04-13T02:20:19.043Z,67.27
2023-04-13T02:22:46.922Z,67.69
2023-04-13T02:25:17.299Z,68.22
2023-04-13T02:27:45.427Z,68.45
2023-04-13T02:30:13.863Z,67.72
2023-04-13T02:32:42.706Z,67.78
2023-04-13T02:35:12.087Z,68.00
2023-04-13T02:37:40.996Z,67.82
2023-04-13T02:40:13.224Z,68.38
2023-04-13T02:42:41.665Z,68.57
2023-04-13T02:45:12.120Z,68.34
2023-04-13T02:47:40.277Z,68.23
2023-04-13T02:50:09.599Z,68.57
2023-04-13T02:52:45.206Z,68.90
2023-04-13T02:55:13.435Z,69.23
2023-04-13T02:57:51.468Z,69.54
2023-04-13T03:00:20.496Z,70.10
2023-04-13T03:02:55.709Z,69.42
2023-04-13T03:05:26.443Z,69.33
2023-04-13T03:07:56.983Z,68.84
2023-04-13T03:10:25.856Z,69.00
2023-04-13T03:12:55.513Z,68.26
2023-04-13T03:15:23.684Z,68.86
2023-04-13T03:17:51.603Z,69.37
2023-04-13T03:20:23.900Z,69.46
2023-04-13T03:23:01.760Z,69.90
2023-04-13T03:25:34.104Z,69.67
2023-04-13T03:28:03.621Z,70.63
2023-04-13T03:30:37.490Z,70.15
2023-04-13T03:33:05.766Z,70.56
2023-04-13T03:35:37.240Z,70.57
2023-04-13T03:38:09.417Z,70.79
2023-04-13T03:40:39.775Z,71.15
2023-04-13T03:43:07.536Z,71.74
2023-04-13T03:45:39.672Z,71.94
2023-04-13T03:48:11.125Z,72.36
2023-04-13T03:50:39.256Z,72.64
2023-04-13T03:53:10.405Z,72.07
2023-04-13T03:55:38.722Z,72.37
2023-04-13T03:58:08.534Z,72.82
2023-04-13T04:00:36.958Z,73.08
2023-04-13T04:03:27.692Z,73.26
2023-04-13T04:05:58.867Z,72.94
2023-04-13T04:08:30.471Z,72.29
2023-04-13T04:11:02.551Z,72.42
2023-04-13T04:13:31.489Z,72.64
2023-04-13T04:16:03.659Z,73.28
2023-04-13T04:18:34.146Z,73.44
2023-04-13T04:21:03.859Z,73.15
2023-04-13T04:23:34.702Z,72.80
2023-04-13T04:26:05.877Z,72.82
2023-04-13T04:28:42.438Z,72.97
2023-04-13T04:31:15.056Z,73.16
2023-04-13T04:33:47.075Z,73.54
2023-04-13T04:36:17.023Z,73.88
2023-04-13T04:38:58.144Z,73.73
2023-04-13T04:41:27.167Z,73.51
2023-04-13T04:44:02.752Z,73.01
2023-04-13T04:46:38.491Z,72.71
2023-04-13T04:49:10.223Z,72.44
2023-04-13T04:51:39.240Z,72.45
2023-04-13T04:54:09.291Z,72.24
2023-04-13T04:56:37.606Z,72.15
2023-04-13T04:59:06.689Z,72.02
2023-04-13T05:01:47.172Z,72.26
2023-04-13T05:04:15.174Z,72.46
2023-04-13T05:06:44.790Z,72.90
2023-04-13T05:09:19.765Z,73.16
2023-04-13T05:11:51.925Z,72.86
2023-04-13T05:14:21.514Z,73.07
2023-04-13T05:16:49.807Z,73.81
2023-04-13T05:19:25.153Z,74.10
2023-04-13T05:21:57.197Z,73.46
2023-04-13T05:24:27.202Z,73.43
2023-04-13T05:26:59.753Z,73.48
2023-04-13T05:29:27.956Z,74.07
2023-04-13T05:31:55.790Z,74.19
2023-04-13T05:34:24.204Z,74.19
2023-04-13T05:37:05.342Z,74.09
2023-04-13T05:39:34.811Z,73.84
2023-04-13T05:42:03.085Z,73.27
2023-04-13T05:44:34.469Z,73.62
2023-04-13T05:47:02.800Z,74.18
2023-04-13T05:49:33.602Z,74.73
2023-04-13T05:52:01.812Z,74.14
2023-04-13T05:54:41.643Z,74.05
2023-04-13T05:57:09.497Z,73.91
2023-04-13T05:59:42.033Z,73.61
2023-04-13T06:02:10.794Z,73.52
2023-04-13T06:04:38.967Z,73.75
2023-04-13T06:07:07.238Z,73.84
2023-04-13T06:09:35.007Z,74.18
2023-04-13T06:12:04.591Z,73.59
2023-04-13T06:14:32.556Z,73.58
2023-04-13T06:17:00.678Z,73.62
2023-04-13T06:19:29.243Z,73.82
2023-04-13T06:21:58.525Z,73.93
2023-04-13T06:24:27.270Z,75.55
2023-04-13T06:26:57.027Z,75.86
2023-04-13T06:29:26.630Z,75.15
2023-04-13T06:32:02.635Z,75.22
2023-04-13T06:34:31.311Z,75.27
2023-04-13T06:36:59.390Z,75.19
2023-04-13T06:39:29.052Z,74.89
2023-04-13T06:42:01.422Z,74.96
2023-04-13T06:45:03.837Z,75.00
2023-04-13T06:47:41.878Z,74.05
2023-04-13T06:50:15.531Z,73.78
2023-04-13T06:52:45.192Z,73.19
2023-04-13T06:55:13.469Z,73.09
2023-04-13T06:57:42.592Z,73.26
2023-04-13T07:00:26.485Z,73.14
2023-04-13T07:02:56.849Z,72.22
2023-04-13T07:05:24.803Z,73.07
2023-04-13T07:07:55.274Z,73.61
2023-04-13T07:10:24.540Z,73.76
2023-04-13T07:12:54.421Z,73.73
2023-04-13T07:15:26.849Z,74.06
2023-04-13T07:17:55.999Z,74.48
2023-04-13T07:20:24.077Z,74.09
2023-04-13T07:22:52.260Z,74.33
2023-04-13T07:25:21.807Z,73.48
2023-04-13T07:27:50.221Z,73.05
2023-04-13T07:30:18.463Z,72.75
2023-04-13T07:32:49.632Z,72.46
2023-04-13T07:35:17.818Z,72.12
2023-04-13T07:37:50.734Z,71.23
2023-04-13T07:40:20.911Z,71.55
2023-04-13T07:42:51.995Z,71.19
2023-04-13T07:45:21.200Z,70.95
2023-04-13T07:47:52.708Z,70.26
2023-04-13T07:50:20.647Z,70.25
2023-04-13T07:52:48.695Z,70.41
2023-04-13T07:55:21.100Z,70.66
2023-04-13T07:57:50.100Z,70.51
2023-04-13T08:00:20.657Z,70.58
2023-04-13T08:02:55.689Z,69.85
2023-04-13T08:05:25.275Z,70.17
2023-04-13T08:07:53.668Z,70.26
2023-04-13T08:10:21.522Z,69.51
2023-04-13T08:12:49.580Z,69.38
2023-04-13T08:15:19.966Z,69.05
2023-04-13T08:17:48.150Z,69.52
2023-04-13T08:20:21.265Z,69.32
2023-04-13T08:22:52.262Z,68.61
2023-04-13T08:25:21.889Z,69.29
2023-04-13T08:27:49.685Z,69.24
2023-04-13T08:30:17.845Z,68.70
2023-04-13T08:32:54.858Z,69.23
2023-04-13T08:35:25.894Z,69.58
2023-04-13T08:37:53.987Z,69.34
2023-04-13T08:40:22.773Z,70.21
2023-04-13T08:42:55.613Z,70.11
2023-04-13T08:45:24.064Z,70.52
2023-04-13T08:47:52.991Z,70.80
2023-04-13T08:50:26.951Z,70.52
2023-04-13T08:52:56.567Z,70.32
2023-04-13T08:55:26.580Z,70.70
2023-04-13T08:57:59.496Z,70.69
2023-04-13T09:00:28.387Z,70.02
2023-04-13T09:03:07.051Z,71.01
2023-04-13T09:05:43.497Z,72.00
2023-04-13T09:08:13.747Z,72.58
2023-04-13T09:10:45.133Z,71.92
2023-04-13T09:13:13.341Z,72.17
2023-04-13T09:15:43.104Z,71.02
2023-04-13T09:18:26.063Z,71.37
2023-04-13T09:21:02.290Z,71.88
2023-04-13T09:23:30.292Z,71.70
2023-04-13T09:26:09.049Z,72.08
2023-04-13T09:28:47.747Z,71.78
2023-04-13T09:31:16.394Z,71.68
2023-04-13T09:33:48.751Z,71.24
2023-04-13T09:36:19.705Z,71.28
2023-04-13T09:38:52.543Z,71.18
2023-04-13T09:41:29.840Z,72.04
2023-04-13T09:43:58.575Z,72.05
2023-04-13T09:46:26.413Z,73.56
2023-04-13T09:49:02.847Z,71.30
2023-04-13T09:51:39.516Z,69.26
2023-04-13T09:54:08.136Z,70.25
2023-04-13T09:56:52.540Z,70.90
2023-04-13T09:59:20.436Z,72.22
2023-04-13T10:01:49.286Z,72.13
2023-04-13T10:04:17.441Z,71.20
2023-04-13T10:06:46.941Z,72.11
2023-04-13T10:09:15.454Z,73.26
2023-04-13T10:11:46.685Z,73.62
2023-04-13T10:14:17.818Z,73.91
2023-04-13T10:17:08.301Z,73.70
2023-04-13T10:19:43.259Z,72.56
2023-04-13T10:22:13.032Z,73.19
2023-04-13T10:24:41.591Z,73.55
2023-04-13T10:27:15.006Z,73.52
2023-04-13T10:29:44.936Z,73.35
2023-04-13T10:32:22.645Z,73.60
2023-04-13T10:34:52.874Z,73.17
2023-04-13T10:37:24.113Z,71.51
2023-04-13T10:40:05.535Z,71.48
2023-04-13T10:42:51.714Z,70.82
2023-04-13T10:45:24.032Z,70.60
2023-04-13T10:47:53.416Z,70.58
2023-04-13T10:50:22.988Z,71.50
2023-04-13T10:53:00.107Z,70.72
2023-04-13T10:55:28.955Z,70.79
2023-04-13T10:57:57.675Z,70.28
2023-04-13T11:00:38.367Z,70.73
2023-04-13T11:03:15.323Z,69.66
2023-04-13T11:05:44.873Z,69.89
2023-04-13T11:08:20.535Z,69.99
2023-04-13T11:10:52.630Z,70.51
2023-04-13T11:13:20.818Z,72.00
2023-04-13T11:15:50.591Z,72.90
2023-04-13T11:18:27.157Z,71.54
2023-04-13T11:20:55.910Z,72.39
2023-04-13T11:23:25.581Z,72.64
2023-04-13T11:25:55.147Z,72.79
2023-04-13T11:28:23.817Z,71.04
2023-04-13T11:30:56.700Z,69.91
2023-04-13T11:33:25.841Z,69.82
2023-04-13T11:35:55.490Z,71.41
2023-04-13T11:38:23.661Z,70.81
2023-04-13T11:41:07.937Z,71.01
2023-04-13T11:43:41.926Z,71.65
2023-04-13T11:46:12.764Z,70.75
2023-04-13T11:48:41.390Z,70.48
2023-04-13T11:51:11.102Z,69.84
2023-04-13T11:53:39.669Z,69.70
2023-04-13T11:56:09.631Z,69.98
2023-04-13T11:58:39.452Z,69.83
2023-04-13T12:03:56.946Z,69.51
2023-04-13T12:06:29.053Z,70.25
2023-04-13T12:09:09.081Z,68.36
2023-04-13T12:11:43.942Z,66.44
2023-04-13T12:14:49.268Z,65.51
2023-04-13T12:19:46.544Z,64.30
2023-04-13T12:22:15.232Z,63.69
2023-04-13T12:24:43.195Z,62.82
2023-04-13T12:29:43.432Z,63.68
2023-04-13T12:32:14.285Z,63.31
2023-04-13T12:34:43.017Z,63.43
2023-04-13T12:37:11.843Z,63.07
2023-04-13T12:39:39.847Z,62.09
2023-04-13T12:42:09.102Z,61.53
2023-04-13T12:44:38.763Z,61.27
2023-04-13T12:47:06.960Z,61.48
2023-04-13T12:49:34.955Z,60.75
2023-04-13T12:52:02.754Z,60.96
2023-04-13T12:54:30.943Z,60.62
2023-04-13T12:56:59.727Z,60.84
2023-04-13T12:59:27.644Z,61.19
2023-04-13T13:01:58.705Z,61.88
2023-04-13T13:04:30.061Z,61.64
2023-04-13T13:06:58.107Z,61.70
2023-04-13T13:09:25.915Z,62.42
2023-04-13T13:11:53.861Z,61.08
2023-04-13T13:14:21.846Z,61.30
2023-04-13T13:16:50.568Z,60.32
2023-04-13T13:19:19.873Z,60.38
2023-04-13T13:21:47.807Z,60.53
2023-04-13T13:24:15.876Z,60.14
2023-04-13T13:27:10.151Z,60.22
2023-04-13T13:29:33.454Z,60.03
2023-04-13T13:32:01.386Z,59.36
2023-04-13T13:34:30.703Z,59.60
2023-04-13T13:36:59.054Z,59.48
2023-04-13T13:39:27.345Z,59.13
2023-04-13T13:41:55.255Z,59.75
2023-04-13T13:44:23.315Z,59.97
2023-04-13T13:46:51.130Z,58.99
2023-04-13T13:49:21.448Z,59.81
2023-04-13T13:52:09.570Z,58.84
2023-04-13T13:54:45.935Z,59.53
2023-04-13T13:57:13.845Z,58.97
2023-04-13T13:59:41.794Z,57.93
2023-04-13T14:02:10.024Z,57.59
2023-04-13T14:04:38.453Z,57.27
2023-04-13T14:07:06.599Z,57.63
2023-04-13T14:09:36.116Z,57.10
2023-04-13T14:12:05.246Z,56.86
2023-04-13T14:14:33.261Z,57.71
2023-04-13T14:17:01.155Z,58.64
2023-04-13T14:19:28.961Z,58.04
2023-04-13T14:21:57.411Z,58.44
2023-04-13T14:24:26.494Z,58.49
2023-04-13T14:26:55.982Z,57.58
2023-04-13T14:29:23.866Z,57.91
2023-04-13T14:31:52.566Z,57.77
2023-04-13T14:34:20.615Z,57.81
2023-04-13T14:36:51.141Z,56.75
2023-04-13T14:39:21.024Z,57.29
2023-04-13T14:41:49.189Z,57.80
2023-04-13T14:44:18.425Z,57.71
2023-04-13T14:46:46.813Z,57.69
2023-04-13T14:49:17.800Z,58.22
2023-04-13T14:51:45.749Z,57.77
2023-04-13T14:54:14.015Z,56.79
2023-04-13T14:56:41.768Z,56.82
2023-04-13T14:59:09.821Z,56.02
2023-04-13T15:01:39.975Z,56.30
2023-04-13T15:04:08.221Z,55.55
2023-04-13T15:06:37.111Z,53.67
2023-04-13T15:09:06.573Z,53.80
2023-04-13T15:11:34.601Z,53.87
2023-04-13T15:14:02.584Z,53.23
2023-04-13T15:16:30.718Z,52.84
2023-04-13T15:19:00.709Z,52.21
2023-04-13T15:21:28.854Z,52.24
2023-04-13T15:23:56.824Z,53.15
2023-04-13T15:26:25.045Z,52.19
2023-04-13T15:28:52.857Z,52.66
2023-04-13T15:31:22.848Z,52.79
2023-04-13T15:33:51.774Z,53.47
2023-04-13T15:36:21.392Z,52.84
2023-04-13T15:38:49.453Z,53.15
2023-04-13T15:41:20.064Z,52.77
2023-04-13T15:43:48.187Z,52.11
2023-04-13T15:46:17.746Z,52.56
2023-04-13T15:48:46.744Z,52.54
2023-04-13T15:51:14.532Z,53.06
2023-04-13T15:53:43.843Z,52.50
2023-04-13T15:56:11.870Z,52.70
2023-04-13T15:58:40.054Z,52.68
2023-04-13T16:01:10.117Z,52.65
2023-04-13T16:03:39.453Z,52.72
2023-04-13T16:06:08.682Z,53.65
2023-04-13T16:08:37.365Z,53.30
2023-04-13T16:11:07.830Z,52.83
2023-04-13T16:13:48.618Z,53.49
2023-04-13T16:16:18.601Z,53.40
2023-04-13T16:18:46.506Z,53.66
2023-04-13T16:21:19.106Z,54.38
2023-04-13T16:23:47.541Z,54.18
2023-04-13T16:26:16.767Z,53.69
2023-04-13T16:28:44.478Z,54.05
2023-04-13T16:31:12.500Z,53.96
2023-04-13T16:33:41.438Z,54.04
2023-04-13T16:36:10.324Z,53.94
2023-04-13T16:38:40.309Z,53.83
2023-04-13T16:41:08.236Z,54.47
2023-04-13T16:43:37.662Z,54.29
2023-04-13T16:46:06.600Z,53.71
2023-04-13T16:48:34.569Z,53.01
2023-04-13T16:51:03.632Z,53.88
2023-04-13T16:53:31.836Z,53.60
2023-04-13T16:56:00.008Z,52.74
2023-04-13T16:58:27.875Z,52.30
2023-04-13T17:00:57.509Z,52.49
2023-04-13T17:03:26.338Z,52.93
2023-04-13T17:05:55.635Z,52.86
2023-04-13T17:08:23.676Z,52.42
2023-04-13T17:10:52.557Z,52.16
2023-04-13T17:13:20.807Z,51.86
2023-04-13T17:15:49.201Z,51.70
2023-04-13T17:18:18.481Z,51.45
2023-04-13T17:20:54.948Z,51.42
2023-04-13T17:23:23.622Z,50.83
2023-04-13T17:25:54.280Z,50.85
2023-04-13T17:28:23.600Z,50.83
2023-04-13T17:30:59.364Z,50.89
2023-04-13T17:33:31.505Z,50.67
2023-04-13T17:36:02.417Z,49.88
2023-04-13T17:38:30.553Z,50.07
2023-04-13T17:40:58.673Z,50.15
2023-04-13T17:43:26.647Z,50.97
2023-04-13T17:45:54.623Z,50.50
2023-04-13T17:48:22.439Z,50.19
2023-04-13T17:50:52.337Z,51.18
2023-04-13T17:53:20.325Z,50.81
2023-04-13T17:55:48.510Z,50.35
2023-04-13T17:58:16.729Z,50.84
2023-04-13T18:00:44.897Z,51.05
2023-04-13T18:03:14.118Z,50.83
2023-04-13T18:05:45.457Z,51.45
2023-04-13T18:08:14.790Z,51.40
2023-04-13T18:10:43.196Z,51.40
2023-04-13T18:13:11.280Z,51.47
2023-04-13T18:15:39.382Z,51.29
2023-04-13T18:18:07.723Z,50.92
2023-04-13T18:20:36.090Z,51.21
2023-04-13T18:23:04.653Z,51.40
2023-04-13T18:25:33.995Z,51.50
2023-04-13T18:28:01.749Z,51.66
2023-04-13T18:30:29.590Z,51.78
2023-04-13T18:32:57.787Z,51.72
2023-04-13T18:35:26.455Z,51.58
2023-04-13T18:37:54.523Z,51.47
2023-04-13T18:40:22.545Z,51.51
2023-04-13T18:42:51.741Z,51.64
2023-04-13T18:45:19.991Z,51.80
2023-04-13T18:47:48.129Z,52.13
2023-04-13T18:50:16.503Z,52.22
2023-04-13T18:52:44.454Z,52.32
2023-04-13T18:55:12.575Z,52.58
2023-04-13T18:57:41.793Z,52.19
2023-04-13T19:00:13.507Z,51.92
2023-04-13T19:02:42.374Z,52.33
2023-04-13T19:05:13.383Z,52.27
2023-04-13T19:07:42.345Z,52.07
2023-04-13T19:10:11.228Z,52.46
2023-04-13T19:12:39.242Z,52.59
2023-04-13T19:15:08.131Z,52.47
2023-04-13T19:17:37.939Z,52.48
2023-04-13T19:20:10.417Z,52.44
2023-04-13T19:22:39.578Z,52.10
2023-04-13T19:25:14.280Z,52.49
2023-04-13T19:27:44.544Z,52.87
2023-04-13T19:30:14.574Z,52.60
2023-04-13T19:32:46.837Z,52.83
2023-04-13T19:35:16.739Z,52.39
2023-04-13T19:37:45.627Z,52.31
2023-04-13T19:40:15.353Z,51.95
2023-04-13T19:42:45.769Z,52.38
2023-04-13T19:45:15.854Z,52.15
2023-04-13T19:47:47.550Z,51.60
2023-04-13T19:50:16.689Z,52.10
2023-04-13T19:52:47.185Z,51.60
2023-04-13T19:55:16.447Z,51.77
2023-04-13T19:57:44.631Z,51.60
2023-04-13T20:00:22.407Z,51.68
2023-04-13T20:02:53.016Z,51.60
2023-04-13T20:05:22.706Z,51.85
2023-04-13T20:07:50.723Z,51.43
2023-04-13T20:10:19.544Z,51.77
2023-04-13T20:12:47.910Z,51.68
2023-04-13T20:15:16.289Z,51.61
2023-04-13T20:17:44.732Z,51.68
2023-04-13T20:20:14.529Z,51.99
2023-04-13T20:22:43.613Z,51.74
2023-04-13T20:25:11.708Z,51.92
2023-04-13T20:27:41.736Z,51.93
2023-04-13T20:30:11.088Z,52.38
2023-04-13T20:32:39.679Z,52.20
2023-04-13T20:35:09.581Z,52.07
2023-04-13T20:37:39.153Z,51.65
2023-04-13T20:40:10.903Z,52.16
2023-04-13T20:42:41.742Z,52.10
2023-04-13T20:45:10.982Z,51.99
2023-04-13T20:47:42.335Z,52.01
2023-04-13T20:50:11.183Z,51.59
2023-04-13T20:52:42.693Z,52.18
2023-04-13T20:55:12.064Z,51.54
2023-04-13T20:57:42.151Z,50.96
2023-04-13T21:00:15.324Z,51.15
2023-04-13T21:02:44.396Z,50.81
2023-04-13T21:05:12.624Z,50.51
2023-04-13T21:07:42.081Z,50.96
2023-04-13T21:10:12.123Z,51.16
2023-04-13T21:12:39.885Z,51.16
2023-04-13T21:15:09.426Z,51.44
2023-04-13T21:17:37.477Z,50.87
2023-04-13T21:20:08.699Z,51.17
2023-04-13T21:22:36.711Z,50.79
2023-04-13T21:25:07.032Z,50.74
2023-04-13T21:27:34.914Z,50.78
2023-04-13T21:30:03.352Z,51.02
2023-04-13T21:32:31.243Z,50.68
2023-04-13T21:35:00.450Z,50.91
2023-04-13T21:37:29.659Z,50.66
2023-04-13T21:39:57.796Z,50.99
2023-04-13T21:42:27.254Z,50.96
2023-04-13T21:44:56.849Z,50.89
2023-04-13T21:47:25.314Z,50.70
2023-04-13T21:49:53.292Z,50.40
2023-04-13T21:52:21.297Z,50.18
2023-04-13T21:54:51.020Z,50.61
2023-04-13T21:57:20.068Z,50.81
2023-04-13T21:59:49.657Z,50.86
2023-04-13T22:02:17.916Z,50.94
2023-04-13T22:04:45.895Z,50.83
2023-04-13T22:07:15.876Z,50.70
2023-04-13T22:09:43.717Z,50.54
2023-04-13T22:12:12.049Z,50.53
2023-04-13T22:14:40.489Z,50.71
2023-04-13T22:17:10.300Z,50.56
2023-04-13T22:19:38.214Z,50.39
2023-04-13T22:22:05.999Z,50.51
2023-04-13T22:24:33.950Z,51.19
2023-04-13T22:27:03.664Z,50.88
2023-04-13T22:29:32.014Z,50.86
2023-04-13T22:31:59.925Z,50.54
2023-04-13T22:34:29.116Z,50.89
2023-04-13T22:36:58.737Z,50.69
2023-04-13T22:39:26.707Z,50.99
2023-04-13T22:41:54.508Z,50.73
2023-04-13T22:44:22.520Z,50.50
2023-04-13T22:46:50.397Z,50.72
2023-04-13T22:49:18.146Z,51.04
2023-04-13T22:51:47.493Z,51.02
2023-04-13T22:54:15.533Z,51.54
2023-04-13T22:56:43.312Z,51.31
2023-04-13T22:59:11.049Z,51.80
2023-04-13T23:01:39.293Z,51.73
2023-04-13T23:04:07.160Z,51.87
2023-04-13T23:06:36.710Z,51.49
2023-04-13T23:09:06.295Z,51.00
2023-04-13T23:11:34.035Z,51.09
2023-04-13T23:14:02.068Z,51.14
2023-04-13T23:16:29.875Z,50.75
2023-04-13T23:18:58.265Z,51.23
2023-04-13T23:21:29.650Z,51.37
2023-04-13T23:23:58.135Z,50.58
2023-04-13T23:26:27.589Z,50.53
2023-04-13T23:28:56.010Z,50.49
2023-04-13T23:31:23.901Z,50.56
2023-04-13T23:33:53.440Z,50.38
2023-04-13T23:36:22.230Z,50.46
2023-04-13T23:38:51.056Z,50.02
2023-04-13T23:41:19.044Z,50.98
2023-04-13T23:43:48.331Z,50.86
2023-04-13T23:46:17.186Z,50.90
2023-04-13T23:48:45.165Z,51.36
2023-04-13T23:51:12.992Z,51.41
2023-04-13T23:53:41.307Z,51.21
2023-04-13T23:56:09.251Z,51.24
2023-04-13T23:58:37.048Z,50.78
